Forres, Argentina
Current Conditions -  °F | °C
As of 3:00 AM on Saturday 20 Dec 2014 (Local Time) from SANT Reporting Station
Clear Clear  
Wind Chill: 23°   Ceiling: Unl
Heat Index: 23°   Visibility: 6mi
Dew Point: 20°   Wind: 5mph
Humidity: 83%   Direction: 360°N
Pressure: 29.53"   Gusts: NA
Location:  27.88°S, 63.97°W
Report Text: SANT 200600Z 36004KT CAVOK 23/20 Q1000
Loading
Personal Weather Stations






























Interactive Weather Map New forecast layout! Learn more

10-Day Weather Forecast

Advertisements
Track Severe Weather on mobile